createdAt,value
2023-01-07T00:01:01.838Z,93.89
2023-01-07T00:02:04.331Z,93.14
2023-01-07T00:03:05.867Z,92.45
2023-01-07T00:04:11.537Z,92.06
2023-01-07T00:05:13.066Z,94.33
2023-01-07T00:06:20.768Z,95.32
2023-01-07T00:07:22.249Z,94.94
2023-01-07T00:08:24.690Z,95.10
2023-01-07T00:09:27.142Z,94.06
2023-01-07T00:10:28.624Z,94.41
2023-01-07T00:11:35.200Z,94.01
2023-01-07T00:12:36.735Z,93.65
2023-01-07T00:13:42.847Z,92.50
2023-01-07T00:14:44.348Z,93.20
2023-01-07T00:15:46.904Z,93.05
2023-01-07T00:16:49.410Z,92.56
2023-01-07T00:17:50.892Z,92.44
2023-01-07T00:18:54.525Z,93.68
2023-01-07T00:19:56.066Z,94.17
2023-01-07T00:20:58.977Z,93.65
2023-01-07T00:22:01.825Z,93.36
2023-01-07T00:23:04.285Z,92.47
2023-01-07T00:24:06.946Z,92.64
2023-01-07T00:25:10.081Z,92.30
2023-01-07T00:26:13.458Z,93.58
2023-01-07T00:27:15.930Z,93.50
2023-01-07T00:28:17.611Z,93.67
2023-01-07T00:29:21.362Z,93.67
2023-01-07T00:30:22.875Z,93.12
2023-01-07T00:31:27.140Z,92.65
2023-01-07T00:32:43.634Z,92.13
2023-01-07T00:33:51.872Z,92.64
2023-01-07T00:34:57.054Z,92.83
2023-01-07T00:35:59.815Z,93.00
2023-01-07T00:37:17.622Z,92.80
2023-01-07T00:38:20.099Z,94.22
2023-01-07T00:39:21.819Z,93.58
2023-01-07T00:40:24.613Z,93.02
2023-01-07T00:41:27.179Z,93.04
2023-01-07T00:42:47.052Z,92.39
2023-01-07T00:43:49.549Z,93.02
2023-01-07T00:44:51.040Z,92.18
2023-01-07T00:45:53.606Z,91.97
2023-01-07T00:46:55.288Z,91.45
2023-01-07T00:47:58.743Z,90.96
2023-01-07T00:49:01.932Z,91.65
2023-01-07T00:50:04.647Z,92.43
2023-01-07T00:51:06.600Z,91.81
2023-01-07T00:52:10.466Z,91.15
2023-01-07T00:53:12.305Z,91.23
2023-01-07T00:54:14.797Z,91.21
2023-01-07T00:55:16.484Z,91.25
2023-01-07T00:56:19.879Z,92.05
2023-01-07T00:57:21.367Z,91.85
2023-01-07T00:58:25.667Z,91.55
2023-01-07T00:59:27.195Z,91.82
2023-01-07T01:00:29.914Z,93.10
2023-01-07T01:01:31.718Z,93.22
2023-01-07T01:02:34.342Z,94.24
2023-01-07T01:03:36.107Z,93.69
2023-01-07T01:04:38.577Z,93.73
2023-01-07T01:05:40.214Z,94.12
2023-01-07T01:06:42.759Z,94.74
2023-01-07T01:07:45.976Z,93.74
2023-01-07T01:08:50.238Z,92.61
2023-01-07T01:09:51.762Z,92.49
2023-01-07T01:10:54.216Z,91.95
2023-01-07T01:11:55.716Z,92.60
2023-01-07T01:12:58.258Z,92.66
2023-01-07T01:13:59.757Z,92.42
2023-01-07T01:15:02.214Z,92.32
2023-01-07T01:16:09.248Z,92.61
2023-01-07T01:17:11.733Z,92.38
2023-01-07T01:18:13.631Z,92.34
2023-01-07T01:19:16.313Z,91.82
2023-01-07T01:20:19.619Z,91.31
2023-01-07T01:21:21.117Z,92.67
2023-01-07T01:22:23.827Z,93.58
2023-01-07T01:23:26.692Z,93.36
2023-01-07T01:24:29.447Z,93.31
2023-01-07T01:25:31.021Z,93.44
2023-01-07T01:26:33.765Z,93.70
2023-01-07T01:27:35.435Z,93.42
2023-01-07T01:28:38.457Z,92.84
2023-01-07T01:29:40.123Z,92.26
2023-01-07T01:30:42.594Z,93.07
2023-01-07T01:31:45.162Z,93.16
2023-01-07T01:32:46.782Z,92.90
2023-01-07T01:33:49.355Z,92.84
2023-01-07T01:34:51.903Z,94.37
2023-01-07T01:35:53.507Z,93.97
2023-01-07T01:36:55.980Z,93.46
2023-01-07T01:37:59.948Z,93.56
2023-01-07T01:39:04.908Z,93.18
2023-01-07T01:40:07.695Z,93.62
2023-01-07T01:41:10.222Z,93.59
2023-01-07T01:42:13.990Z,93.62
2023-01-07T01:43:32.888Z,94.56
2023-01-07T01:44:49.498Z,94.73
2023-01-07T01:45:51.036Z,94.64
2023-01-07T01:46:53.673Z,94.46
2023-01-07T01:47:58.944Z,95.17
2023-01-07T01:49:06.519Z,94.94
2023-01-07T01:50:15.399Z,95.00
2023-01-07T01:51:21.026Z,96.09
2023-01-07T01:52:30.156Z,96.17
2023-01-07T01:53:36.578Z,95.12
2023-01-07T01:54:41.374Z,94.50
2023-01-07T01:55:50.164Z,93.92
2023-01-07T01:56:54.784Z,93.31
2023-01-07T01:58:02.855Z,92.96
2023-01-07T01:59:06.887Z,91.82
2023-01-07T02:00:10.936Z,92.20
2023-01-07T02:01:12.860Z,91.62
2023-01-07T02:02:18.172Z,90.90
2023-01-07T02:03:21.552Z,90.31
2023-01-07T02:04:26.848Z,90.79
2023-01-07T02:05:31.956Z,91.41
2023-01-07T02:06:38.439Z,91.76
2023-01-07T02:07:39.975Z,91.34
2023-01-07T02:08:42.456Z,90.56
2023-01-07T02:09:47.040Z,91.19
2023-01-07T02:10:54.674Z,91.03
2023-01-07T02:12:06.255Z,90.43
2023-01-07T02:13:26.322Z,91.05
2023-01-07T02:14:45.046Z,91.25
2023-01-07T02:15:56.097Z,90.77
2023-01-07T02:17:03.871Z,90.70
2023-01-07T02:18:20.399Z,89.94
2023-01-07T02:20:07.071Z,90.29
2023-01-07T02:21:20.530Z,90.71
2023-01-07T02:22:46.431Z,91.79
2023-01-07T02:24:37.563Z,90.88
2023-01-07T02:25:59.452Z,89.42
2023-01-07T02:27:29.786Z,88.96
2023-01-07T02:28:55.583Z,89.04
2023-01-07T02:30:36.766Z,91.54
2023-01-07T02:31:58.020Z,91.43
2023-01-07T02:33:16.678Z,91.62
2023-01-07T02:34:27.322Z,91.40
2023-01-07T02:35:43.755Z,90.59
2023-01-07T02:36:57.323Z,90.49
2023-01-07T02:38:08.148Z,89.76
2023-01-07T02:39:16.710Z,89.54
2023-01-07T02:40:23.114Z,89.32
2023-01-07T02:41:35.627Z,88.96
2023-01-07T02:42:42.697Z,88.30
2023-01-07T02:43:53.993Z,87.92
2023-01-07T02:45:07.566Z,87.90
2023-01-07T02:46:17.940Z,87.60
2023-01-07T02:47:28.473Z,87.46
2023-01-07T02:48:31.314Z,87.34
2023-01-07T02:49:35.192Z,86.77
2023-01-07T02:50:36.805Z,87.34
2023-01-07T02:51:43.837Z,87.00
2023-01-07T02:52:45.353Z,89.41
2023-01-07T02:53:49.729Z,89.45
2023-01-07T02:54:55.889Z,88.92
2023-01-07T02:56:13.760Z,89.41
2023-01-07T02:57:37.050Z,91.15
2023-01-07T02:58:52.087Z,91.74
2023-01-07T03:00:11.934Z,91.16
2023-01-07T03:01:41.182Z,90.20
2023-01-07T03:02:59.428Z,90.56
2023-01-07T03:04:12.632Z,90.96
2023-01-07T03:05:27.756Z,90.63
2023-01-07T03:06:47.832Z,90.50
2023-01-07T03:08:05.509Z,91.92
2023-01-07T03:09:12.035Z,92.00
2023-01-07T03:10:22.516Z,91.46
2023-01-07T03:11:27.203Z,90.61
2023-01-07T03:12:36.077Z,89.58
2023-01-07T03:13:41.590Z,88.89
2023-01-07T03:14:49.932Z,88.88
2023-01-07T03:15:55.403Z,89.54
2023-01-07T03:17:02.557Z,89.18
2023-01-07T03:18:11.453Z,88.84
2023-01-07T03:19:16.463Z,88.59
2023-01-07T03:20:21.472Z,88.38
2023-01-07T03:21:27.045Z,88.31
2023-01-07T03:22:31.597Z,89.25
2023-01-07T03:23:35.867Z,89.78
2023-01-07T03:24:39.572Z,89.56
2023-01-07T03:25:46.086Z,89.17
2023-01-07T03:26:52.635Z,88.46
2023-01-07T03:27:57.051Z,88.40
2023-01-07T03:29:01.769Z,88.08
2023-01-07T03:30:09.187Z,87.67
2023-01-07T03:31:14.728Z,87.06
2023-01-07T03:32:18.946Z,87.00
2023-01-07T03:33:27.451Z,86.83
2023-01-07T03:34:31.431Z,87.46
2023-01-07T03:35:37.121Z,87.80
2023-01-07T03:36:43.719Z,87.62
2023-01-07T03:37:46.670Z,87.90
2023-01-07T03:38:50.533Z,87.80
2023-01-07T03:39:52.860Z,87.47
2023-01-07T03:40:55.942Z,87.13
2023-01-07T03:42:16.420Z,87.36
2023-01-07T03:43:20.229Z,87.01
2023-01-07T03:44:21.704Z,87.88
2023-01-07T03:45:26.282Z,88.52
2023-01-07T03:46:28.686Z,88.68
2023-01-07T03:47:31.171Z,88.20
2023-01-07T03:48:33.994Z,88.73
2023-01-07T03:49:38.653Z,88.98
2023-01-07T03:50:40.318Z,88.68
2023-01-07T03:51:42.790Z,88.60
2023-01-07T03:52:45.329Z,89.09
2023-01-07T03:53:47.775Z,89.53
2023-01-07T03:54:49.335Z,89.51
2023-01-07T03:55:51.821Z,90.91
2023-01-07T03:56:53.358Z,90.45
2023-01-07T03:57:56.514Z,90.97
2023-01-07T03:58:57.995Z,90.45
2023-01-07T04:00:00.459Z,90.45
2023-01-07T04:01:02.104Z,90.92
2023-01-07T04:02:04.695Z,90.16
2023-01-07T04:03:06.326Z,89.47
2023-01-07T04:04:10.153Z,89.31
2023-01-07T04:05:13.356Z,88.63
2023-01-07T04:06:15.830Z,88.35
2023-01-07T04:07:17.389Z,87.91
2023-01-07T04:08:19.851Z,87.50
2023-01-07T04:09:22.016Z,87.30
2023-01-07T04:10:24.627Z,87.10
2023-01-07T04:11:26.337Z,86.64
2023-01-07T04:12:28.818Z,86.52
2023-01-07T04:13:30.336Z,86.30
2023-01-07T04:14:32.943Z,86.15
2023-01-07T04:15:34.539Z,85.94
2023-01-07T04:16:37.846Z,85.81
2023-01-07T04:17:40.396Z,86.28
2023-01-07T04:18:42.166Z,86.61
2023-01-07T04:19:46.482Z,86.85
2023-01-07T04:20:48.730Z,87.04
2023-01-07T04:21:51.237Z,87.75
2023-01-07T04:22:52.747Z,87.65
2023-01-07T04:23:55.189Z,88.01
2023-01-07T04:24:57.987Z,88.49
2023-01-07T04:26:00.500Z,87.88
2023-01-07T04:27:02.184Z,87.55
2023-01-07T04:28:05.033Z,88.62
2023-01-07T04:29:06.537Z,88.42
2023-01-07T04:30:09.791Z,87.34
2023-01-07T04:31:11.342Z,88.55
2023-01-07T04:32:13.830Z,88.63
2023-01-07T04:33:15.501Z,88.35
2023-01-07T04:34:18.215Z,87.88
2023-01-07T04:35:21.050Z,87.56
2023-01-07T04:36:23.544Z,87.63
2023-01-07T04:37:25.136Z,86.94
2023-01-07T04:38:27.590Z,86.15
2023-01-07T04:39:29.082Z,85.75
2023-01-07T04:40:31.660Z,86.19
2023-01-07T04:41:33.156Z,86.31
2023-01-07T04:42:35.610Z,86.65
2023-01-07T04:43:37.483Z,86.40
2023-01-07T04:44:39.909Z,86.30
2023-01-07T04:45:41.722Z,88.11
2023-01-07T04:46:44.297Z,87.80
2023-01-07T04:47:45.776Z,87.98
2023-01-07T04:48:48.221Z,87.99
2023-01-07T04:49:49.747Z,87.90
2023-01-07T04:50:53.657Z,88.12
2023-01-07T04:51:55.140Z,87.78
2023-01-07T04:52:57.548Z,87.58
2023-01-07T04:53:59.048Z,87.39
2023-01-07T04:55:01.589Z,87.36
2023-01-07T04:56:05.630Z,87.07
2023-01-07T04:57:08.294Z,86.92
2023-01-07T04:58:09.834Z,86.73
2023-01-07T04:59:12.261Z,86.56
2023-01-07T05:00:14.520Z,86.13
2023-01-07T05:01:17.070Z,85.75
2023-01-07T05:02:18.576Z,85.14
2023-01-07T05:03:21.090Z,84.63
2023-01-07T05:04:22.670Z,84.83
2023-01-07T05:05:25.157Z,84.94
2023-01-07T05:06:27.962Z,86.27
2023-01-07T05:07:30.396Z,86.05
2023-01-07T05:08:31.920Z,85.45
2023-01-07T05:09:34.712Z,85.29
2023-01-07T05:10:36.263Z,85.54
2023-01-07T05:11:38.847Z,85.51
2023-01-07T05:12:40.399Z,85.77
2023-01-07T05:13:42.843Z,86.00
2023-01-07T05:14:44.427Z,86.03
2023-01-07T05:15:47.058Z,86.65
2023-01-07T05:16:48.775Z,86.50
2023-01-07T05:17:51.219Z,86.76
2023-01-07T05:18:52.692Z,87.03
2023-01-07T05:19:55.187Z,86.76
2023-01-07T05:20:56.700Z,86.12
2023-01-07T05:22:01.070Z,85.25
2023-01-07T05:23:03.784Z,85.16
2023-01-07T05:24:06.619Z,84.72
2023-01-07T05:25:08.886Z,84.65
2023-01-07T05:26:11.341Z,84.31
2023-01-07T05:27:12.976Z,84.47
2023-01-07T05:28:15.437Z,84.87
2023-01-07T05:29:16.991Z,85.24
2023-01-07T05:30:19.432Z,85.49
2023-01-07T05:31:20.984Z,86.34
2023-01-07T05:32:23.508Z,87.08
2023-01-07T05:33:25.105Z,86.85
2023-01-07T05:34:27.690Z,86.54
2023-01-07T05:35:29.176Z,86.33
2023-01-07T05:36:31.631Z,86.78
2023-01-07T05:37:34.463Z,86.96
2023-01-07T05:38:36.867Z,86.73
2023-01-07T05:39:38.442Z,86.23
2023-01-07T05:40:42.244Z,85.95
2023-01-07T05:41:43.770Z,85.89
2023-01-07T05:42:46.279Z,86.43
2023-01-07T05:43:47.849Z,86.82
2023-01-07T05:44:50.283Z,86.64
2023-01-07T05:45:51.935Z,86.85
2023-01-07T05:46:54.427Z,86.52
2023-01-07T05:47:55.919Z,87.28
2023-01-07T05:48:58.416Z,87.31
2023-01-07T05:49:59.890Z,86.62
2023-01-07T05:51:02.431Z,86.01
2023-01-07T05:52:04.202Z,86.02
2023-01-07T05:53:08.487Z,86.73
2023-01-07T05:54:10.260Z,88.07
2023-01-07T05:55:13.296Z,89.18
2023-01-07T05:56:14.835Z,88.80
2023-01-07T05:57:17.256Z,88.77
2023-01-07T05:58:18.706Z,88.55
2023-01-07T05:59:21.194Z,88.17
2023-01-07T06:00:22.785Z,88.14
2023-01-07T06:01:25.353Z,88.14
2023-01-07T06:02:26.861Z,88.38
2023-01-07T06:03:29.304Z,89.53
2023-01-07T06:04:30.898Z,89.54
2023-01-07T06:05:33.707Z,89.43
2023-01-07T06:06:35.269Z,89.68
2023-01-07T06:07:37.945Z,89.74
2023-01-07T06:08:40.806Z,90.17
2023-01-07T06:09:43.293Z,90.06
2023-01-07T06:10:44.933Z,90.57
2023-01-07T06:11:47.359Z,90.44
2023-01-07T06:12:48.917Z,90.63
2023-01-07T06:13:51.420Z,90.26
2023-01-07T06:14:53.020Z,89.91
2023-01-07T06:16:00.243Z,89.51
2023-01-07T06:17:02.706Z,89.81
2023-01-07T06:18:04.226Z,89.53
2023-01-07T06:19:06.739Z,90.09
2023-01-07T06:20:10.524Z,90.13
2023-01-07T06:21:12.086Z,89.72
2023-01-07T06:22:15.366Z,89.65
2023-01-07T06:23:16.878Z,88.83
2023-01-07T06:24:20.710Z,88.82
2023-01-07T06:25:22.297Z,88.73
2023-01-07T06:26:24.827Z,89.23
2023-01-07T06:27:26.339Z,89.28
2023-01-07T06:28:28.779Z,89.20
2023-01-07T06:29:30.322Z,89.43
2023-01-07T06:30:32.828Z,89.15
2023-01-07T06:31:34.444Z,89.27
2023-01-07T06:32:42.619Z,89.17
2023-01-07T06:33:45.489Z,89.07
2023-01-07T06:34:47.130Z,88.62
2023-01-07T06:35:54.340Z,87.99
2023-01-07T06:37:00.306Z,88.23
2023-01-07T06:38:02.812Z,89.23
2023-01-07T06:39:04.981Z,90.35
2023-01-07T06:40:10.005Z,89.94
2023-01-07T06:41:11.530Z,90.21
2023-01-07T06:42:13.985Z,90.85
2023-01-07T06:43:15.556Z,91.43
2023-01-07T06:44:19.981Z,91.36
2023-01-07T06:45:21.782Z,90.99
2023-01-07T06:46:24.380Z,91.33
2023-01-07T06:47:25.994Z,91.18
2023-01-07T06:48:28.478Z,90.65
2023-01-07T06:49:30.887Z,91.67
2023-01-07T06:50:32.440Z,90.94
2023-01-07T06:51:34.923Z,90.55
2023-01-07T06:52:36.449Z,89.91
2023-01-07T06:53:39.096Z,89.53
2023-01-07T06:54:40.602Z,89.60
2023-01-07T06:55:48.966Z,89.90
2023-01-07T06:56:51.409Z,89.54
2023-01-07T06:57:53.017Z,89.00
2023-01-07T06:58:55.476Z,88.08
2023-01-07T06:59:57.011Z,88.05
2023-01-07T07:01:04.818Z,87.46
2023-01-07T07:02:06.932Z,87.04
2023-01-07T07:03:09.471Z,86.31
2023-01-07T07:04:10.995Z,85.97
2023-01-07T07:05:13.740Z,85.62
2023-01-07T07:06:15.371Z,85.62
2023-01-07T07:07:18.708Z,85.31
2023-01-07T07:08:20.224Z,84.64
2023-01-07T07:09:22.723Z,84.44
2023-01-07T07:10:24.796Z,84.47
2023-01-07T07:11:28.673Z,84.21
2023-01-07T07:12:30.214Z,83.57
2023-01-07T07:13:32.706Z,83.75
2023-01-07T07:14:34.325Z,84.29
2023-01-07T07:15:38.900Z,84.08
2023-01-07T07:16:40.432Z,83.71
2023-01-07T07:17:42.918Z,83.76
2023-01-07T07:18:44.535Z,83.59
2023-01-07T07:19:47.056Z,83.63
2023-01-07T07:20:49.850Z,83.83
2023-01-07T07:21:51.467Z,83.91
2023-01-07T07:22:54.492Z,83.82
2023-01-07T07:23:55.993Z,83.83
2023-01-07T07:24:58.493Z,83.79
2023-01-07T07:26:00.122Z,83.23
2023-01-07T07:27:04.086Z,83.04
2023-01-07T07:28:05.889Z,82.92
2023-01-07T07:29:09.424Z,82.98
2023-01-07T07:30:15.106Z,83.21
2023-01-07T07:31:17.639Z,82.92
2023-01-07T07:32:19.328Z,82.50
2023-01-07T07:33:21.793Z,82.16
2023-01-07T07:34:23.318Z,82.24
2023-01-07T07:35:25.818Z,81.93
2023-01-07T07:36:27.334Z,81.98
2023-01-07T07:37:29.967Z,81.57
2023-01-07T07:38:31.511Z,81.77
2023-01-07T07:39:34.371Z,81.86
2023-01-07T07:40:35.918Z,81.91
2023-01-07T07:41:38.686Z,82.13
2023-01-07T07:43:11.820Z,82.19
2023-01-07T07:44:04.101Z,83.16
2023-01-07T07:45:06.893Z,83.76
2023-01-07T07:46:09.456Z,83.74
2023-01-07T07:47:12.604Z,82.94
2023-01-07T07:48:15.429Z,82.98
2023-01-07T07:49:17.983Z,83.02
2023-01-07T07:50:19.620Z,83.13
2023-01-07T07:51:22.081Z,82.96
2023-01-07T07:52:23.607Z,82.61
2023-01-07T07:53:26.201Z,82.06
2023-01-07T07:54:28.412Z,82.55
2023-01-07T07:55:30.885Z,83.32
2023-01-07T07:56:32.769Z,83.37
2023-01-07T07:57:39.220Z,83.05
2023-01-07T07:58:42.984Z,82.54
2023-01-07T07:59:45.438Z,82.29
2023-01-07T08:00:47.029Z,82.01
2023-01-07T08:01:50.434Z,82.46
2023-01-07T08:02:53.713Z,81.44
2023-01-07T08:03:56.831Z,81.21
2023-01-07T08:05:00.842Z,82.04
2023-01-07T08:06:04.054Z,82.43
2023-01-07T08:07:06.692Z,82.43
2023-01-07T08:08:10.071Z,82.03
2023-01-07T08:09:11.598Z,81.91
2023-01-07T08:10:14.226Z,81.61
2023-01-07T08:11:16.619Z,81.16
2023-01-07T08:12:20.264Z,80.77
2023-01-07T08:13:23.732Z,81.41
2023-01-07T08:14:27.582Z,81.23
2023-01-07T08:15:29.831Z,81.23
2023-01-07T08:16:32.599Z,81.11
2023-01-07T08:17:34.271Z,80.96
2023-01-07T08:18:36.731Z,80.66
2023-01-07T08:19:38.274Z,80.80
2023-01-07T08:20:40.938Z,80.66
2023-01-07T08:21:43.380Z,80.94
2023-01-07T08:22:44.929Z,81.46
2023-01-07T08:23:47.436Z,83.56
2023-01-07T08:24:48.976Z,84.27
2023-01-07T08:25:51.396Z,84.25
2023-01-07T08:26:55.598Z,84.88
2023-01-07T08:27:59.497Z,84.15
2023-01-07T08:29:01.031Z,83.98
2023-01-07T08:30:05.596Z,83.53
2023-01-07T08:31:08.015Z,82.23
2023-01-07T08:32:10.490Z,81.65
2023-01-07T08:33:11.991Z,82.58
2023-01-07T08:34:14.424Z,84.12
2023-01-07T08:35:17.020Z,83.12
2023-01-07T08:36:23.062Z,82.20
2023-01-07T08:37:25.960Z,82.90
2023-01-07T08:38:31.371Z,82.82
2023-01-07T08:39:33.816Z,83.64
2023-01-07T08:40:36.523Z,83.92
2023-01-07T08:41:38.112Z,84.32
2023-01-07T08:42:41.235Z,84.59
2023-01-07T08:43:45.062Z,84.50
2023-01-07T08:44:46.628Z,83.62
2023-01-07T08:45:50.681Z,83.05
2023-01-07T08:46:53.489Z,82.41
2023-01-07T08:47:57.627Z,82.68
2023-01-07T08:49:00.114Z,83.13
2023-01-07T08:50:01.608Z,84.10
2023-01-07T08:51:04.253Z,86.05
2023-01-07T08:52:06.181Z,85.78
2023-01-07T08:53:08.695Z,85.91
2023-01-07T08:54:11.130Z,85.20
2023-01-07T08:55:12.706Z,85.28
2023-01-07T08:56:15.234Z,85.35
2023-01-07T08:57:19.477Z,85.78
2023-01-07T08:58:21.025Z,86.07
2023-01-07T08:59:23.528Z,85.95
2023-01-07T09:00:25.272Z,85.13
2023-01-07T09:01:29.241Z,84.93
2023-01-07T09:02:31.018Z,85.07
2023-01-07T09:03:34.001Z,85.44
2023-01-07T09:04:36.453Z,84.92
2023-01-07T09:05:38.976Z,84.75
2023-01-07T09:06:41.395Z,83.75
2023-01-07T09:07:43.208Z,82.95
2023-01-07T09:08:45.639Z,82.60
2023-01-07T09:09:47.334Z,83.11
2023-01-07T09:10:49.810Z,84.20
2023-01-07T09:11:51.292Z,83.63
2023-01-07T09:12:53.790Z,83.16
2023-01-07T09:13:56.266Z,82.41
2023-01-07T09:14:57.759Z,83.47
2023-01-07T09:16:00.338Z,83.88
2023-01-07T09:17:03.228Z,83.90
2023-01-07T09:18:07.010Z,83.82
2023-01-07T09:19:10.248Z,82.97
2023-01-07T09:20:12.680Z,83.27
2023-01-07T09:21:14.249Z,82.77
2023-01-07T09:22:16.747Z,83.69
2023-01-07T09:23:21.031Z,82.93
2023-01-07T09:24:22.546Z,82.46
2023-01-07T09:25:25.154Z,81.52
2023-01-07T09:26:26.811Z,80.77
2023-01-07T09:27:29.691Z,81.05
2023-01-07T09:28:34.073Z,79.99
2023-01-07T09:29:35.599Z,79.89
2023-01-07T09:30:38.284Z,80.14
2023-01-07T09:31:41.443Z,80.13
2023-01-07T09:32:45.757Z,79.00
2023-01-07T09:33:47.287Z,79.80
2023-01-07T09:34:49.943Z,79.93
2023-01-07T09:35:52.436Z,80.33
2023-01-07T09:36:53.941Z,80.75
2023-01-07T09:37:56.425Z,81.16
2023-01-07T09:38:58.876Z,81.40
2023-01-07T09:40:01.168Z,80.76
2023-01-07T09:41:03.762Z,80.47
2023-01-07T09:42:12.803Z,80.16
2023-01-07T09:43:19.536Z,79.77
2023-01-07T09:44:34.707Z,79.91
2023-01-07T09:45:39.941Z,80.00
2023-01-07T09:46:43.512Z,79.47
2023-01-07T09:47:51.239Z,79.71
2023-01-07T09:48:58.981Z,79.65
2023-01-07T09:50:04.099Z,79.50
2023-01-07T09:51:14.068Z,79.02
2023-01-07T09:52:21.370Z,77.88
2023-01-07T09:53:27.741Z,78.60
2023-01-07T09:54:32.991Z,79.37
2023-01-07T09:55:37.645Z,79.21
2023-01-07T09:56:41.305Z,79.42
2023-01-07T09:57:44.077Z,78.73
2023-01-07T09:58:48.817Z,78.84
2023-01-07T09:59:50.296Z,77.92
2023-01-07T10:01:01.018Z,78.19
2023-01-07T10:02:17.440Z,78.77
2023-01-07T10:03:40.858Z,78.41
2023-01-07T10:04:51.991Z,79.27
2023-01-07T10:06:07.407Z,79.02
2023-01-07T10:07:20.128Z,79.06
2023-01-07T10:08:32.157Z,78.84
2023-01-07T10:09:48.331Z,79.22
2023-01-07T10:10:56.857Z,79.56
2023-01-07T10:12:07.411Z,79.19
2023-01-07T10:13:34.257Z,78.79
2023-01-07T10:15:06.094Z,79.40
2023-01-07T10:16:14.823Z,78.27
2023-01-07T10:17:27.348Z,77.66
2023-01-07T10:18:43.483Z,77.35
2023-01-07T10:19:50.423Z,77.09
2023-01-07T10:21:00.442Z,77.55
2023-01-07T10:22:09.357Z,77.76
2023-01-07T10:23:15.294Z,77.69
2023-01-07T10:24:22.706Z,77.99
2023-01-07T10:25:28.736Z,78.09
2023-01-07T10:26:36.548Z,78.14
2023-01-07T10:27:42.475Z,77.65
2023-01-07T10:28:50.627Z,77.92
2023-01-07T10:29:56.332Z,77.83
2023-01-07T10:31:01.303Z,77.56
2023-01-07T10:32:08.029Z,77.68
2023-01-07T10:33:20.064Z,76.64
2023-01-07T10:34:32.998Z,76.74
2023-01-07T10:35:40.599Z,74.96
2023-01-07T10:36:58.350Z,75.52
2023-01-07T10:38:04.818Z,75.40
2023-01-07T10:39:19.174Z,75.25
2023-01-07T10:40:33.542Z,75.10
2023-01-07T10:41:45.990Z,75.71
2023-01-07T10:42:57.038Z,75.68
2023-01-07T10:44:16.856Z,75.12
2023-01-07T10:45:37.828Z,75.50
2023-01-07T10:46:49.407Z,77.47
2023-01-07T10:48:06.405Z,78.01
2023-01-07T10:49:22.559Z,77.23
2023-01-07T10:50:37.817Z,77.75
2023-01-07T10:51:57.835Z,77.95
2023-01-07T10:53:08.615Z,77.58
2023-01-07T10:54:24.036Z,76.41
2023-01-07T10:55:38.339Z,75.97
2023-01-07T10:56:45.051Z,75.80
2023-01-07T10:57:48.431Z,76.95
2023-01-07T10:58:52.048Z,76.54
2023-01-07T10:59:59.216Z,75.59
2023-01-07T11:01:01.969Z,76.17
2023-01-07T11:02:06.092Z,76.28
2023-01-07T11:03:19.351Z,75.37
2023-01-07T11:04:22.148Z,74.27
2023-01-07T11:05:28.543Z,73.46
2023-01-07T11:06:39.558Z,73.60
2023-01-07T11:07:45.790Z,73.63
2023-01-07T11:08:49.972Z,74.33
2023-01-07T11:09:53.544Z,75.49
2023-01-07T11:10:58.616Z,75.57
2023-01-07T11:12:18.803Z,74.73
2023-01-07T11:13:25.763Z,74.02
2023-01-07T11:14:32.389Z,72.94
2023-01-07T11:15:38.247Z,72.69
2023-01-07T11:16:46.487Z,72.94
2023-01-07T11:17:52.343Z,73.21
2023-01-07T11:18:58.556Z,73.26
2023-01-07T11:20:01.031Z,73.85
2023-01-07T11:21:04.913Z,73.44
2023-01-07T11:22:29.301Z,73.15
2023-01-07T11:23:37.188Z,74.30
2023-01-07T11:24:38.819Z,75.07
2023-01-07T11:25:42.037Z,74.04
2023-01-07T11:26:44.556Z,74.75
2023-01-07T11:27:46.193Z,75.25
2023-01-07T11:28:53.276Z,73.98
2023-01-07T11:29:59.398Z,74.05
2023-01-07T11:31:02.011Z,73.56
2023-01-07T11:32:05.919Z,73.16
2023-01-07T11:33:15.449Z,72.29
2023-01-07T11:34:23.647Z,71.41
2023-01-07T11:35:28.172Z,72.22
2023-01-07T11:36:42.213Z,72.67
2023-01-07T11:37:47.791Z,73.23
2023-01-07T11:38:49.335Z,72.64
2023-01-07T11:39:59.249Z,72.04
2023-01-07T11:41:01.457Z,72.40
2023-01-07T11:42:34.941Z,73.34
2023-01-07T11:43:40.850Z,74.43
2023-01-07T11:44:42.484Z,73.24
2023-01-07T11:46:19.515Z,73.38
2023-01-07T11:47:16.515Z,72.49
2023-01-07T11:48:24.832Z,71.58
2023-01-07T11:49:29.908Z,69.86
2023-01-07T11:50:36.057Z,64.76
2023-01-07T11:51:41.539Z,64.72
2023-01-07T11:52:55.286Z,64.88
2023-01-07T11:54:00.176Z,67.06
2023-01-07T11:55:01.872Z,67.39
2023-01-07T11:56:06.791Z,70.01
2023-01-07T11:57:13.278Z,66.67
2023-01-07T11:58:28.585Z,70.31
2023-01-07T11:59:32.692Z,70.30
2023-01-07T12:00:34.253Z,70.83
2023-01-07T12:01:43.012Z,70.39
2023-01-07T12:02:45.521Z,70.02
2023-01-07T12:04:12.687Z,70.48
2023-01-07T12:05:22.665Z,69.61
2023-01-07T12:06:27.386Z,68.15
2023-01-07T12:07:31.223Z,68.92
2023-01-07T12:08:32.850Z,67.99
2023-01-07T12:09:38.334Z,70.28
2023-01-07T12:10:40.097Z,70.42
2023-01-07T12:11:45.121Z,70.60
2023-01-07T12:12:46.786Z,70.57
2023-01-07T12:13:53.257Z,70.15
2023-01-07T12:14:55.807Z,69.72
2023-01-07T12:16:01.833Z,67.65
2023-01-07T12:17:10.318Z,67.62
2023-01-07T12:18:29.651Z,70.46
2023-01-07T12:19:55.662Z,69.95
2023-01-07T12:21:19.347Z,68.59
2023-01-07T12:22:31.729Z,69.30
2023-01-07T12:23:45.900Z,70.64
2023-01-07T12:25:19.153Z,71.06
2023-01-07T12:26:25.874Z,70.36
2023-01-07T12:27:34.835Z,71.51
2023-01-07T12:28:53.396Z,73.55
2023-01-07T12:30:08.258Z,73.45
2023-01-07T12:31:23.703Z,73.72
2023-01-07T12:32:41.142Z,74.47
2023-01-07T12:34:01.231Z,74.38
2023-01-07T12:35:14.528Z,75.08
2023-01-07T12:36:26.503Z,74.72
2023-01-07T12:37:38.567Z,74.28
2023-01-07T12:38:48.444Z,73.47
2023-01-07T12:39:57.811Z,73.45
2023-01-07T12:41:05.588Z,74.18
2023-01-07T12:42:13.190Z,73.78
2023-01-07T12:43:22.180Z,74.13
2023-01-07T12:44:23.832Z,74.21
2023-01-07T12:45:30.131Z,73.80
2023-01-07T12:46:39.517Z,73.37
2023-01-07T12:47:50.403Z,73.15
2023-01-07T12:48:57.813Z,72.74
2023-01-07T12:50:05.698Z,72.77
2023-01-07T12:51:14.386Z,74.08
2023-01-07T12:52:20.924Z,72.12
2023-01-07T12:53:28.756Z,72.51
2023-01-07T12:54:44.049Z,72.87
2023-01-07T12:55:49.777Z,73.59
2023-01-07T12:56:56.345Z,73.15
2023-01-07T12:58:08.966Z,72.63
2023-01-07T12:59:47.340Z,72.20
2023-01-07T13:00:46.680Z,72.31
2023-01-07T13:01:54.931Z,72.41
2023-01-07T13:03:09.180Z,72.15
2023-01-07T13:04:28.149Z,73.33
2023-01-07T13:05:38.410Z,73.11
2023-01-07T13:06:45.618Z,72.59
2023-01-07T13:07:54.949Z,72.94
2023-01-07T13:09:02.875Z,74.42
2023-01-07T13:10:14.956Z,73.03
2023-01-07T13:11:43.097Z,72.72
2023-01-07T13:12:46.252Z,72.83
2023-01-07T13:13:53.968Z,73.09
2023-01-07T13:14:59.582Z,73.16
2023-01-07T13:16:02.130Z,73.28
2023-01-07T13:17:14.806Z,73.00
2023-01-07T13:18:19.635Z,72.13
2023-01-07T13:19:21.202Z,71.14
2023-01-07T13:20:37.589Z,70.26
2023-01-07T13:21:40.714Z,71.58
2023-01-07T13:22:47.145Z,71.71
2023-01-07T13:24:08.826Z,70.97
2023-01-07T13:25:26.741Z,70.69
2023-01-07T13:26:38.336Z,71.35
2023-01-07T13:27:58.555Z,73.12
2023-01-07T13:29:15.328Z,70.34
2023-01-07T13:30:24.079Z,70.02
2023-01-07T13:31:45.002Z,69.37
2023-01-07T13:33:06.134Z,70.40
2023-01-07T13:34:19.037Z,70.74
2023-01-07T13:35:42.364Z,69.95
2023-01-07T13:37:03.506Z,69.86
2023-01-07T13:38:17.869Z,69.25
2023-01-07T13:39:37.265Z,69.53
2023-01-07T13:41:04.308Z,69.03
2023-01-07T13:42:21.918Z,69.04
2023-01-07T13:43:37.254Z,69.46
2023-01-07T13:44:57.216Z,70.03
2023-01-07T13:46:04.457Z,69.53
2023-01-07T13:47:09.236Z,70.20
2023-01-07T13:48:21.147Z,69.74
2023-01-07T13:49:29.915Z,72.56
2023-01-07T13:50:35.930Z,72.31
2023-01-07T13:51:43.270Z,73.46
2023-01-07T13:52:46.056Z,72.18
2023-01-07T13:53:48.624Z,72.16
2023-01-07T13:54:56.202Z,72.31
2023-01-07T13:56:38.629Z,72.20
2023-01-07T13:57:44.254Z,72.44
2023-01-07T13:58:48.764Z,74.67
2023-01-07T13:59:52.848Z,75.64
2023-01-07T14:01:03.435Z,76.62
2023-01-07T14:02:18.508Z,76.01
2023-01-07T14:03:32.994Z,77.03
2023-01-07T14:04:36.805Z,76.36
2023-01-07T14:05:38.695Z,76.50
2023-01-07T14:06:43.060Z,77.92
2023-01-07T14:07:47.795Z,76.28
2023-01-07T14:08:52.564Z,76.57
2023-01-07T14:09:57.736Z,77.99